createdAt,value
2022-11-22T00:00:59.993Z,4.07
2022-11-22T00:03:28.249Z,2.87
2022-11-22T00:05:56.406Z,2.93
2022-11-22T00:08:24.650Z,3.10
2022-11-22T00:10:55.222Z,2.27
2022-11-22T00:13:23.446Z,3.60
2022-11-22T00:15:59.428Z,3.70
2022-11-22T00:18:27.693Z,2.40
2022-11-22T00:20:55.889Z,3.20
2022-11-22T00:23:24.198Z,3.07
2022-11-22T00:25:53.789Z,5.53
2022-11-22T00:28:22.273Z,4.27
2022-11-22T00:30:50.528Z,5.40
2022-11-22T00:33:18.777Z,3.43
2022-11-22T00:35:47.104Z,4.43
2022-11-22T00:38:15.294Z,3.60
2022-11-22T00:40:44.366Z,3.80
2022-11-22T00:43:13.972Z,7.33
2022-11-22T00:45:42.636Z,5.33
2022-11-22T00:48:10.957Z,5.67
2022-11-22T00:50:39.148Z,3.00
2022-11-22T00:53:07.672Z,4.23
2022-11-22T00:55:35.952Z,4.30
2022-11-22T00:58:04.160Z,6.63
2022-11-22T01:00:33.815Z,4.70
2022-11-22T01:03:02.162Z,3.03
2022-11-22T01:05:30.386Z,4.03
2022-11-22T01:07:58.879Z,4.37
2022-11-22T01:10:27.139Z,4.60
2022-11-22T01:12:55.316Z,4.20
2022-11-22T01:15:23.898Z,4.10
2022-11-22T01:17:53.595Z,5.80
2022-11-22T01:20:21.778Z,4.03
2022-11-22T01:22:50.341Z,3.70
2022-11-22T01:25:18.569Z,5.03
2022-11-22T01:27:47.950Z,5.40
2022-11-22T01:30:16.769Z,3.67
2022-11-22T01:32:45.080Z,3.47
2022-11-22T01:35:15.112Z,3.60
2022-11-22T01:37:43.344Z,3.60
2022-11-22T01:40:12.440Z,4.30
2022-11-22T01:42:45.079Z,4.20
2022-11-22T01:45:44.927Z,4.87
2022-11-22T01:48:35.384Z,3.40
2022-11-22T01:51:07.665Z,4.13
2022-11-22T01:53:37.464Z,5.03
2022-11-22T01:56:06.965Z,2.67
2022-11-22T01:58:35.219Z,3.40
2022-11-22T02:01:03.500Z,3.47
2022-11-22T02:03:33.000Z,4.03
2022-11-22T02:06:01.198Z,3.13
2022-11-22T02:08:33.887Z,2.63
2022-11-22T02:11:03.138Z,3.60
2022-11-22T02:13:31.896Z,4.47
2022-11-22T02:16:00.107Z,3.70
2022-11-22T02:18:28.616Z,5.87
2022-11-22T02:20:56.791Z,5.03
2022-11-22T02:23:27.430Z,3.17
2022-11-22T02:25:58.084Z,2.80
2022-11-22T02:28:26.344Z,3.20
2022-11-22T02:30:54.560Z,3.43
2022-11-22T02:33:23.060Z,3.77
2022-11-22T02:35:51.297Z,4.73
2022-11-22T02:38:21.160Z,2.63
2022-11-22T02:40:51.378Z,2.67
2022-11-22T02:43:21.777Z,3.27
2022-11-22T02:45:50.259Z,2.90
2022-11-22T02:48:19.026Z,4.73
2022-11-22T02:50:47.244Z,2.40
2022-11-22T02:53:15.514Z,5.30
2022-11-22T02:55:43.732Z,2.70
2022-11-22T02:58:12.309Z,5.03
2022-11-22T03:00:42.106Z,3.23
2022-11-22T03:03:10.324Z,2.43
2022-11-22T03:05:38.539Z,1.97
2022-11-22T03:08:06.819Z,3.27
2022-11-22T03:10:35.632Z,4.43
2022-11-22T03:13:04.208Z,3.67
2022-11-22T03:15:32.375Z,2.10
2022-11-22T03:18:01.945Z,2.50
2022-11-22T03:20:30.319Z,2.50
2022-11-22T03:22:58.499Z,3.83
2022-11-22T03:25:26.978Z,2.77
2022-11-22T03:27:56.142Z,4.10
2022-11-22T03:30:24.365Z,3.10
2022-11-22T03:32:52.637Z,2.60
2022-11-22T03:35:22.242Z,2.40
2022-11-22T03:37:50.473Z,3.53
2022-11-22T03:40:19.013Z,3.77
2022-11-22T03:42:47.175Z,2.93
2022-11-22T03:45:15.435Z,2.80
2022-11-22T03:47:43.661Z,3.03
2022-11-22T03:50:12.160Z,3.13
2022-11-22T03:52:41.885Z,3.87
2022-11-22T03:55:10.545Z,2.87
2022-11-22T03:57:38.748Z,3.77
2022-11-22T04:00:08.485Z,4.27
2022-11-22T04:02:40.143Z,2.80
2022-11-22T04:05:09.115Z,3.23
2022-11-22T04:07:37.656Z,2.10
2022-11-22T04:10:08.016Z,3.20
2022-11-22T04:12:36.269Z,4.23
2022-11-22T04:15:09.117Z,2.70
2022-11-22T04:17:45.756Z,4.53
2022-11-22T04:20:33.508Z,3.13
2022-11-22T04:23:02.299Z,3.87
2022-11-22T04:25:32.349Z,3.43
2022-11-22T04:28:00.641Z,2.90
2022-11-22T04:30:42.762Z,2.23
2022-11-22T04:33:11.100Z,4.90
2022-11-22T04:35:39.725Z,3.00
2022-11-22T04:38:08.042Z,3.27
2022-11-22T04:40:37.889Z,3.20
2022-11-22T04:43:23.352Z,3.30
2022-11-22T04:45:51.597Z,4.73
2022-11-22T04:48:20.131Z,2.90
2022-11-22T04:51:05.882Z,3.83
2022-11-22T04:53:34.107Z,4.70
2022-11-22T04:56:03.743Z,3.50
2022-11-22T04:58:32.016Z,3.17
2022-11-22T05:01:00.288Z,2.83
2022-11-22T05:03:29.850Z,3.77
2022-11-22T05:05:58.109Z,2.80
2022-11-22T05:08:26.390Z,3.97
2022-11-22T05:11:00.562Z,3.00
2022-11-22T05:13:32.908Z,3.03
2022-11-22T05:16:01.457Z,4.13
2022-11-22T05:18:30.317Z,3.63
2022-11-22T05:21:00.192Z,3.60
2022-11-22T05:23:45.917Z,4.73
2022-11-22T05:26:14.131Z,4.53
2022-11-22T05:28:43.799Z,3.07
2022-11-22T05:31:13.239Z,5.20
2022-11-22T05:33:43.026Z,4.13
2022-11-22T05:36:11.367Z,5.37
2022-11-22T05:38:39.733Z,3.33
2022-11-22T05:41:08.651Z,3.27
2022-11-22T05:43:37.267Z,4.53
2022-11-22T05:46:11.393Z,5.47
2022-11-22T05:48:40.717Z,5.93
2022-11-22T05:51:09.692Z,7.67
2022-11-22T05:53:37.998Z,5.33
2022-11-22T05:56:06.970Z,4.83
2022-11-22T05:58:35.542Z,4.90
2022-11-22T06:01:05.208Z,4.87
2022-11-22T06:03:34.887Z,8.13
2022-11-22T06:06:03.150Z,4.43
2022-11-22T06:08:31.457Z,5.77
2022-11-22T06:11:05.938Z,6.37
2022-11-22T06:13:37.401Z,4.80
2022-11-22T06:16:05.871Z,9.03
2022-11-22T06:18:35.932Z,4.70
2022-11-22T06:21:05.637Z,5.13
2022-11-22T06:23:33.881Z,5.13
2022-11-22T06:26:03.122Z,6.33
2022-11-22T06:28:31.743Z,6.23
2022-11-22T06:31:02.303Z,5.83
2022-11-22T06:33:30.539Z,4.70
2022-11-22T06:36:04.276Z,4.90
2022-11-22T06:38:32.845Z,8.67
2022-11-22T06:41:02.156Z,7.63
2022-11-22T06:43:30.829Z,6.33
2022-11-22T06:45:59.179Z,6.50
2022-11-22T06:48:27.419Z,8.27
2022-11-22T06:50:59.900Z,8.23
2022-11-22T06:53:46.173Z,7.37
2022-11-22T06:56:16.576Z,5.97
2022-11-22T06:58:45.519Z,6.17
2022-11-22T07:01:15.107Z,7.80
2022-11-22T07:03:43.803Z,7.13
2022-11-22T07:06:12.783Z,7.60
2022-11-22T07:08:42.608Z,7.73
2022-11-22T07:11:11.838Z,7.60
2022-11-22T07:13:40.165Z,7.07
2022-11-22T07:16:09.080Z,8.37
2022-11-22T07:18:37.661Z,8.47
2022-11-22T07:21:11.093Z,7.20
2022-11-22T07:23:42.844Z,7.90
2022-11-22T07:26:11.161Z,6.97
2022-11-22T07:28:39.332Z,10.67
2022-11-22T07:31:09.255Z,8.90
2022-11-22T07:33:37.503Z,9.93
2022-11-22T07:36:06.249Z,7.17
2022-11-22T07:38:34.518Z,6.90
2022-11-22T07:41:04.370Z,9.87
2022-11-22T07:43:32.641Z,8.13
2022-11-22T07:46:01.192Z,9.83
2022-11-22T07:48:29.456Z,8.70
2022-11-22T07:50:57.746Z,10.63
2022-11-22T07:53:26.223Z,9.73
2022-11-22T07:55:54.423Z,8.93
2022-11-22T07:58:24.115Z,9.03
2022-11-22T08:00:52.631Z,9.90
2022-11-22T08:03:27.046Z,8.10
2022-11-22T08:06:00.781Z,8.13
2022-11-22T08:08:29.035Z,8.87
2022-11-22T08:10:57.304Z,9.57
2022-11-22T08:13:27.132Z,8.23
2022-11-22T08:15:57.529Z,7.77
2022-11-22T08:18:27.912Z,8.17
2022-11-22T08:21:03.761Z,10.13
2022-11-22T08:23:32.013Z,9.50
2022-11-22T08:26:00.336Z,9.50
2022-11-22T08:28:30.254Z,9.03
2022-11-22T08:31:02.728Z,8.33
2022-11-22T08:33:30.943Z,7.53
2022-11-22T08:35:59.216Z,8.83
2022-11-22T08:38:27.477Z,7.63
2022-11-22T08:40:56.123Z,8.33
2022-11-22T08:43:24.610Z,7.77
2022-11-22T08:45:57.421Z,7.53
2022-11-22T08:48:25.830Z,7.40
2022-11-22T08:50:54.605Z,8.30
2022-11-22T08:53:22.864Z,7.43
2022-11-22T08:55:51.786Z,10.13
2022-11-22T08:58:20.158Z,7.67
2022-11-22T09:00:48.409Z,8.13
2022-11-22T09:03:17.989Z,7.17
2022-11-22T09:08:36.342Z,7.20
2022-11-22T09:11:07.928Z,7.67
2022-11-22T09:13:36.196Z,7.53
2022-11-22T09:16:04.482Z,6.90
2022-11-22T09:18:34.215Z,6.83
2022-11-22T09:21:02.563Z,5.33
2022-11-22T09:23:30.777Z,5.77
2022-11-22T09:25:59.846Z,5.97
2022-11-22T09:28:28.291Z,6.43
2022-11-22T09:31:00.838Z,6.43
2022-11-22T09:33:29.095Z,5.57
2022-11-22T09:36:02.388Z,4.27
2022-11-22T09:38:30.608Z,4.90
2022-11-22T09:40:59.001Z,5.00
2022-11-22T09:43:32.400Z,5.60
2022-11-22T09:46:12.734Z,5.33
2022-11-22T09:48:52.745Z,6.13
2022-11-22T09:51:24.446Z,4.60
2022-11-22T09:53:54.268Z,5.27
2022-11-22T09:56:24.312Z,5.90
2022-11-22T09:58:53.768Z,5.13
2022-11-22T10:01:23.855Z,5.00
2022-11-22T10:03:54.816Z,6.07
2022-11-22T10:06:28.231Z,6.53
2022-11-22T10:09:00.834Z,5.77
2022-11-22T10:11:36.833Z,5.27
2022-11-22T10:14:07.150Z,5.40
2022-11-22T10:16:38.855Z,6.03
2022-11-22T10:19:12.130Z,4.13
2022-11-22T10:21:42.356Z,4.23
2022-11-22T10:24:14.478Z,5.67
2022-11-22T10:26:42.817Z,7.30
2022-11-22T10:29:19.169Z,5.30
2022-11-22T10:31:52.696Z,6.53
2022-11-22T10:34:25.080Z,5.23
2022-11-22T10:36:57.037Z,5.90
2022-11-22T10:39:36.480Z,6.33
2022-11-22T10:42:22.612Z,6.47
2022-11-22T10:44:53.759Z,6.43
2022-11-22T10:47:34.367Z,6.43
2022-11-22T10:50:06.441Z,7.37
2022-11-22T10:52:39.634Z,6.87
2022-11-22T10:55:19.070Z,6.60
2022-11-22T10:57:49.694Z,6.80
2022-11-22T11:00:20.123Z,7.10
2022-11-22T11:03:07.285Z,6.17
2022-11-22T11:05:45.648Z,7.43
2022-11-22T11:08:54.433Z,8.30
2022-11-22T11:11:19.152Z,5.20
2022-11-22T11:13:49.316Z,6.60
2022-11-22T11:16:19.239Z,6.67
2022-11-22T11:18:49.119Z,7.23
2022-11-22T11:21:17.550Z,4.83
2022-11-22T11:23:48.452Z,5.43
2022-11-22T11:26:25.552Z,5.20
2022-11-22T11:29:12.304Z,4.70
2022-11-22T11:31:43.486Z,4.90
2022-11-22T11:34:17.847Z,4.93
2022-11-22T11:36:48.470Z,5.20
2022-11-22T11:39:23.673Z,5.60
2022-11-22T11:41:51.908Z,5.07
2022-11-22T11:44:28.483Z,4.87
2022-11-22T11:46:57.057Z,7.23
2022-11-22T11:49:26.231Z,6.10
2022-11-22T11:51:56.160Z,5.53
2022-11-22T11:54:27.511Z,4.90
2022-11-22T11:56:57.761Z,4.63
2022-11-22T11:59:30.275Z,5.20
2022-11-22T12:02:00.138Z,4.73
2022-11-22T12:04:30.396Z,4.37
2022-11-22T12:07:03.851Z,6.90
2022-11-22T12:09:35.705Z,5.20
2022-11-22T12:12:12.275Z,4.27
2022-11-22T12:15:09.266Z,7.53
2022-11-22T12:17:31.499Z,4.40
2022-11-22T12:20:03.763Z,4.00
2022-11-22T12:22:50.868Z,3.97
2022-11-22T12:25:37.308Z,5.40
2022-11-22T12:28:13.952Z,3.77
2022-11-22T12:30:42.696Z,4.60
2022-11-22T12:33:14.935Z,7.27
2022-11-22T12:35:44.589Z,3.33
2022-11-22T12:38:13.810Z,5.23
2022-11-22T12:40:43.997Z,4.33
2022-11-22T12:43:15.654Z,5.10
2022-11-22T12:45:44.540Z,5.10
2022-11-22T12:48:16.135Z,6.60
2022-11-22T12:50:45.731Z,6.70
2022-11-22T12:53:14.726Z,4.77
2022-11-22T12:55:49.273Z,5.40
2022-11-22T12:58:20.893Z,6.00
2022-11-22T13:00:57.945Z,7.07
2022-11-22T13:03:31.162Z,8.43
2022-11-22T13:05:59.909Z,6.70
2022-11-22T13:08:29.880Z,6.57
2022-11-22T13:11:00.935Z,8.10
2022-11-22T13:13:32.771Z,9.70
2022-11-22T13:16:02.882Z,8.93
2022-11-22T13:18:33.992Z,6.80
2022-11-22T13:21:05.148Z,8.53
2022-11-22T13:23:46.351Z,7.70
2022-11-22T13:26:18.117Z,10.00
2022-11-22T13:28:46.366Z,11.87
2022-11-22T13:31:19.241Z,9.37
2022-11-22T13:33:57.802Z,6.87
2022-11-22T13:36:47.049Z,7.33
2022-11-22T13:39:19.517Z,7.90
2022-11-22T13:41:55.851Z,7.17
2022-11-22T13:44:36.312Z,7.43
2022-11-22T13:47:04.908Z,10.27
2022-11-22T13:49:41.188Z,8.40
2022-11-22T13:52:53.596Z,8.33
2022-11-22T13:55:40.455Z,6.17
2022-11-22T13:58:50.725Z,7.93
2022-11-22T14:01:57.876Z,8.33
2022-11-22T14:04:32.570Z,8.40
2022-11-22T14:07:03.445Z,6.80
2022-11-22T14:09:40.117Z,8.17
2022-11-22T14:12:24.904Z,7.83
2022-11-22T14:15:09.936Z,7.67
2022-11-22T14:17:42.293Z,6.90
2022-11-22T14:20:15.512Z,6.10
2022-11-22T14:22:48.456Z,7.87
2022-11-22T14:25:41.705Z,6.30
2022-11-22T14:28:13.879Z,7.43
2022-11-22T14:30:44.086Z,5.47
2022-11-22T14:33:17.120Z,4.60
2022-11-22T14:36:15.409Z,6.80
2022-11-22T14:38:43.659Z,7.17
2022-11-22T14:41:43.023Z,5.87
2022-11-22T14:44:14.810Z,7.07
2022-11-22T14:46:53.098Z,9.53
2022-11-22T14:49:27.984Z,8.40
2022-11-22T14:51:56.887Z,6.73
2022-11-22T14:54:28.156Z,8.47
2022-11-22T14:57:02.721Z,8.10
2022-11-22T14:59:50.828Z,11.53
2022-11-22T15:02:54.143Z,9.43
2022-11-22T15:09:14.558Z,8.53
2022-11-22T15:09:16.589Z,9.27
2022-11-22T15:11:46.468Z,7.20
2022-11-22T15:15:00.068Z,6.40
2022-11-22T15:57:47.879Z,8.77
2022-11-22T16:00:22.304Z,8.97
2022-11-22T16:02:51.366Z,10.97
2022-11-22T16:06:09.567Z,9.23
2022-11-22T16:08:13.314Z,8.03
2022-11-22T16:10:44.898Z,7.67
2022-11-22T16:13:14.326Z,8.30
2022-11-22T16:15:42.845Z,8.80
2022-11-22T16:18:15.386Z,9.67
2022-11-22T16:20:43.650Z,8.90
2022-11-22T16:23:16.492Z,9.37
2022-11-22T16:25:46.883Z,8.23
2022-11-22T16:28:36.035Z,11.73
2022-11-22T16:31:06.939Z,8.07
2022-11-22T16:33:35.294Z,14.40
2022-11-22T16:36:05.799Z,8.97
2022-11-22T16:38:34.182Z,11.13
2022-11-22T16:41:04.952Z,8.67
2022-11-22T16:43:34.739Z,11.40
2022-11-22T16:46:03.078Z,8.10
2022-11-22T16:48:33.247Z,11.17
2022-11-22T16:51:04.260Z,9.00
2022-11-22T16:53:38.174Z,11.57
2022-11-22T16:56:08.520Z,7.90
2022-11-22T16:58:36.770Z,11.97
2022-11-22T17:01:05.005Z,11.80
2022-11-22T17:03:33.819Z,9.23
2022-11-22T17:06:02.048Z,8.67
2022-11-22T17:08:30.219Z,11.13
2022-11-22T17:10:59.882Z,12.47
2022-11-22T17:13:29.572Z,11.27
2022-11-22T17:15:57.892Z,11.50
2022-11-22T17:18:26.119Z,11.30
2022-11-22T17:20:54.295Z,10.23
2022-11-22T17:23:27.783Z,9.60
2022-11-22T17:25:56.014Z,12.87
2022-11-22T17:28:24.358Z,13.30
2022-11-22T17:30:53.976Z,11.73
2022-11-22T17:33:22.259Z,14.27
2022-11-22T17:35:50.457Z,13.87
2022-11-22T17:38:18.908Z,15.60
2022-11-22T17:40:47.228Z,10.33
2022-11-22T17:43:15.434Z,11.50
2022-11-22T17:45:43.822Z,14.20
2022-11-22T17:48:13.432Z,9.00
2022-11-22T17:50:41.861Z,11.87
2022-11-22T17:53:10.072Z,11.53
2022-11-22T17:58:27.610Z,9.73
2022-11-22T18:01:03.570Z,7.47
2022-11-22T18:03:33.531Z,11.40
2022-11-22T18:06:01.859Z,9.70
2022-11-22T18:08:30.164Z,11.30
2022-11-22T18:10:59.750Z,9.13
2022-11-22T18:13:28.106Z,11.03
2022-11-22T18:16:02.989Z,7.00
2022-11-22T18:21:25.766Z,14.30
2022-11-22T18:23:54.347Z,14.87
2022-11-22T18:26:38.777Z,11.13
2022-11-22T18:31:56.978Z,13.00
2022-11-22T18:34:31.292Z,8.30
2022-11-22T18:37:03.480Z,9.23
2022-11-22T18:39:36.009Z,14.40
2022-11-22T18:42:05.067Z,12.63
2022-11-22T18:44:35.553Z,11.40
2022-11-22T18:47:04.242Z,9.17
2022-11-22T18:49:36.448Z,12.63
2022-11-22T18:52:05.284Z,10.93
2022-11-22T18:54:36.380Z,10.93
2022-11-22T18:57:05.181Z,11.97
2022-11-22T18:59:34.280Z,8.07
2022-11-22T19:02:04.307Z,9.20
2022-11-22T19:04:36.710Z,9.43
2022-11-22T19:07:05.828Z,12.73
2022-11-22T19:09:36.895Z,10.33
2022-11-22T19:12:06.155Z,9.30
2022-11-22T19:14:35.109Z,11.87
2022-11-22T19:17:03.948Z,14.20
2022-11-22T19:19:33.911Z,8.73
2022-11-22T19:22:04.898Z,9.20
2022-11-22T19:24:34.782Z,8.93
2022-11-22T19:27:03.623Z,12.63
2022-11-22T19:29:33.198Z,12.70
2022-11-22T19:32:01.941Z,12.90
2022-11-22T19:34:30.611Z,11.20
2022-11-22T19:37:01.365Z,13.40
2022-11-22T19:39:29.940Z,12.20
2022-11-22T19:41:58.362Z,13.17
2022-11-22T19:44:26.911Z,14.80
2022-11-22T19:46:55.066Z,12.57
2022-11-22T19:49:23.299Z,9.67
2022-11-22T19:51:51.623Z,9.97
2022-11-22T19:54:21.193Z,12.77
2022-11-22T19:56:49.713Z,11.60
2022-11-22T19:59:18.441Z,12.60
2022-11-22T20:01:46.937Z,9.90
2022-11-22T20:04:15.334Z,11.17
2022-11-22T20:06:48.626Z,8.53
2022-11-22T20:09:18.243Z,9.77
2022-11-22T20:11:47.857Z,9.43
2022-11-22T20:14:16.160Z,7.80
2022-11-22T20:16:44.462Z,12.10
2022-11-22T20:19:12.747Z,8.73
2022-11-22T20:21:41.026Z,10.53
2022-11-22T20:24:09.819Z,10.07
2022-11-22T20:26:38.094Z,7.23
2022-11-22T20:29:08.863Z,6.80
2022-11-22T20:31:37.281Z,10.97
2022-11-22T20:34:05.553Z,8.90
2022-11-22T20:36:34.700Z,6.60
2022-11-22T20:39:09.536Z,7.67
2022-11-22T20:41:38.242Z,9.50
2022-11-22T20:44:08.230Z,10.50
2022-11-22T20:46:37.728Z,10.87
2022-11-22T20:49:06.002Z,11.17
2022-11-22T20:51:36.028Z,10.93
2022-11-22T20:54:04.331Z,9.80
2022-11-22T20:56:32.534Z,10.13
2022-11-22T20:59:00.764Z,9.13
2022-11-22T21:01:31.224Z,10.10
2022-11-22T21:03:59.467Z,7.73
2022-11-22T21:06:28.964Z,8.27
2022-11-22T21:08:57.157Z,10.57
2022-11-22T21:11:28.026Z,8.27
2022-11-22T21:13:56.811Z,8.80
2022-11-22T21:16:26.056Z,14.87
2022-11-22T21:18:56.980Z,8.43
2022-11-22T21:21:25.482Z,9.23
2022-11-22T21:23:54.707Z,8.33
2022-11-22T21:26:23.027Z,9.43
2022-11-22T21:28:51.386Z,10.60
2022-11-22T21:31:22.550Z,8.17
2022-11-22T21:33:51.009Z,8.50
2022-11-22T21:36:20.651Z,12.77
2022-11-22T21:38:49.950Z,11.13
2022-11-22T21:44:07.559Z,12.07
2022-11-22T21:46:36.059Z,11.00
2022-11-22T21:49:04.275Z,11.37
2022-11-22T21:51:33.980Z,10.90
2022-11-22T21:54:02.649Z,12.27
2022-11-22T21:56:31.534Z,10.77
2022-11-22T21:59:00.132Z,12.30
2022-11-22T22:01:28.426Z,9.27
2022-11-22T22:03:56.720Z,10.50
2022-11-22T22:06:25.256Z,12.13
2022-11-22T22:08:54.861Z,9.33
2022-11-22T22:11:24.525Z,13.00
2022-11-22T22:13:53.663Z,10.83
2022-11-22T22:16:23.775Z,9.30
2022-11-22T22:18:52.058Z,13.20
2022-11-22T22:21:20.637Z,10.77
2022-11-22T22:23:48.828Z,9.77
2022-11-22T22:26:18.969Z,13.37
2022-11-22T22:28:47.548Z,11.43
2022-11-22T22:31:21.412Z,10.07
2022-11-22T22:33:50.251Z,10.17
2022-11-22T22:36:18.491Z,10.53
2022-11-22T22:38:46.675Z,12.90
2022-11-22T22:41:15.268Z,9.50
2022-11-22T22:43:45.714Z,7.73
2022-11-22T22:46:14.882Z,9.43
2022-11-22T22:48:43.163Z,9.37
2022-11-22T22:51:12.762Z,10.67
2022-11-22T22:53:41.221Z,13.40
2022-11-22T22:56:09.955Z,8.63
2022-11-22T22:58:38.499Z,10.67
2022-11-22T23:01:09.033Z,10.70
2022-11-22T23:03:38.069Z,8.83
2022-11-22T23:06:07.446Z,9.67
2022-11-22T23:08:36.073Z,9.73
2022-11-22T23:11:05.853Z,7.73
2022-11-22T23:13:35.044Z,10.20
2022-11-22T23:16:03.276Z,12.27
2022-11-22T23:18:34.606Z,9.63
2022-11-22T23:21:03.376Z,8.93
2022-11-22T23:23:31.924Z,9.67
2022-11-22T23:26:03.037Z,12.50
2022-11-22T23:28:31.310Z,12.43
2022-11-22T23:31:05.658Z,10.23
2022-11-22T23:33:35.285Z,11.33
2022-11-22T23:36:05.232Z,12.77
2022-11-22T23:38:33.459Z,7.30
2022-11-22T23:41:01.756Z,10.67
2022-11-22T23:43:30.076Z,10.07
2022-11-22T23:45:58.700Z,10.60
2022-11-22T23:48:27.216Z,9.53
2022-11-22T23:50:56.880Z,9.13
2022-11-22T23:53:25.101Z,8.67
2022-11-22T23:55:53.331Z,12.03
2022-11-22T23:58:21.798Z,10.60
